Time;durP1;ratioP1;P1;durP2;ratioP2;P2;SDS_P1;SDS_P2;PMS_P1;PMS_P2;Temp;Humidity;BMP_temperature;BMP_pressure;BME280_temperature;BME280_humidity;BME280_pressure;Samples;Min_cycle;Max_cycle;Signal;HPM_P1;HPM_P2
2022/07/27 00:00:24;;;;;;;1999.90;999.90;;;14.50;99.90;;;;;;4899697;29;20052;-75
2022/07/27 00:02:51;;;;;;;1999.90;999.90;;;15.50;99.90;;;;;;4916414;29;20043;-76
2022/07/27 00:05:18;;;;;;;1999.90;999.90;;;14.60;99.90;;;;;;4916299;29;20108;-77
2022/07/27 00:07:44;;;;;;;;;;;14.60;99.90;;;;;;4902281;29;20060;-75
2022/07/27 00:10:10;;;;;;;1999.90;999.90;;;14.60;99.90;;;;;;4919955;29;19951;-75
2022/07/27 00:12:35;;;;;;;1947.45;999.90;;;14.60;99.90;;;;;;4919690;29;20461;-75
2022/07/27 00:15:01;;;;;;;1987.30;999.90;;;14.60;99.90;;;;;;4919826;29;20071;-77
2022/07/27 00:17:27;;;;;;;1999.90;999.90;;;14.60;99.90;;;;;;4918498;29;20474;-75
2022/07/27 00:19:52;;;;;;;1999.90;999.90;;;14.60;99.90;;;;;;4903197;29;20068;-77
2022/07/27 00:22:18;;;;;;;1999.90;999.90;;;14.60;99.90;;;;;;4919240;29;20048;-75
2022/07/27 00:24:44;;;;;;;1980.85;999.90;;;15.30;99.90;;;;;;4919755;29;20405;-75
2022/07/27 00:27:10;;;;;;;1776.15;999.90;;;14.40;99.90;;;;;;4919633;29;20048;-75
2022/07/27 00:29:35;;;;;;;1998.10;999.90;;;14.30;99.90;;;;;;4919452;29;20040;-75
2022/07/27 00:32:01;;;;;;;1999.90;999.90;;;14.20;99.90;;;;;;4919407;29;20524;-75
2022/07/27 00:34:27;;;;;;;1999.90;999.90;;;14.10;99.90;;;;;;4919437;29;20056;-75
2022/07/27 00:36:52;;;;;;;1999.90;999.90;;;14.10;99.90;;;;;;4919516;29;20055;-75
2022/07/27 00:39:18;;;;;;;1999.90;999.90;;;14.00;99.90;;;;;;4919133;29;20478;-80
2022/07/27 00:41:45;;;;;;;1999.90;999.90;;;13.90;99.90;;;;;;4902265;29;20400;-80
2022/07/27 00:44:11;;;;;;;1943.85;999.90;;;13.80;99.90;;;;;;4919347;29;20048;-75
2022/07/27 00:46:37;;;;;;;1999.90;999.90;;;13.80;99.90;;;;;;4902325;29;20175;-75
2022/07/27 00:49:03;;;;;;;1999.90;999.90;;;13.70;99.90;;;;;;4919082;29;20044;-75
2022/07/27 00:51:31;;;;;;;1848.45;999.90;;;13.70;99.90;;;;;;4902206;29;20382;-75
2022/07/27 00:53:57;;;;;;;1995.72;999.90;;;14.60;99.90;;;;;;4918794;29;20115;-75
2022/07/27 00:56:23;;;;;;;1892.38;999.90;;;13.60;99.90;;;;;;4918847;29;20091;-75
2022/07/27 00:58:51;;;;;;;1935.93;999.90;;;13.50;99.90;;;;;;4918977;29;20054;-75
2022/07/27 01:01:18;;;;;;;;;;;13.50;99.90;;;;;;4919494;29;20501;-76
2022/07/27 01:03:45;;;;;;;1814.30;999.90;;;13.40;99.90;;;;;;4918823;29;19923;-75
2022/07/27 01:06:11;;;;;;;1695.95;999.90;;;13.40;99.90;;;;;;4902071;29;20111;-75
2022/07/27 01:08:37;;;;;;;1687.32;999.90;;;13.30;99.90;;;;;;4918447;29;20084;-75
2022/07/27 01:11:03;;;;;;;1638.07;999.90;;;13.30;99.90;;;;;;4918931;29;20143;-78
2022/07/27 01:13:29;;;;;;;1774.07;999.90;;;13.30;99.90;;;;;;4901956;29;20066;-75
2022/07/27 01:15:56;;;;;;;1772.68;999.90;;;13.20;99.90;;;;;;4918861;29;20052;-75
2022/07/27 01:18:49;;;;;;;1826.90;999.90;;;13.30;99.90;;;;;;4901115;29;20056;-75
2022/07/27 01:21:14;;;;;;;1795.32;999.90;;;13.50;99.90;;;;;;4915412;29;20142;-75
2022/07/27 01:23:40;;;;;;;1830.60;999.90;;;13.20;99.90;;;;;;4918284;29;20156;-75
2022/07/27 01:26:06;;;;;;;1578.78;999.90;;;13.10;99.90;;;;;;4918871;29;20048;-75
2022/07/27 01:28:32;;;;;;;1779.68;999.90;;;13.00;99.90;;;;;;4918190;29;20052;-75
2022/07/27 01:30:58;;;;;;;1799.57;999.90;;;13.00;99.90;;;;;;4901531;29;20397;-75
2022/07/27 01:33:26;;;;;;;1688.57;999.90;;;12.90;99.90;;;;;;4918483;29;20064;-75
2022/07/27 01:35:56;;;;;;;1743.28;999.90;;;12.90;99.90;;;;;;4918453;29;20055;-75
2022/07/27 01:38:22;;;;;;;1481.90;999.90;;;12.80;99.90;;;;;;4918164;29;20094;-75
2022/07/27 01:40:50;;;;;;;1861.03;999.90;;;12.80;99.90;;;;;;4901557;29;20056;-75
2022/07/27 01:43:15;;;;;;;1768.53;999.90;;;12.80;99.90;;;;;;4918455;29;20497;-75
2022/07/27 01:45:41;;;;;;;1362.80;988.35;;;12.80;99.90;;;;;;4918148;29;20047;-75
2022/07/27 01:48:08;;;;;;;1428.05;999.90;;;12.70;99.90;;;;;;4918485;29;20473;-75
2022/07/27 01:50:34;;;;;;;1811.65;999.90;;;12.70;99.90;;;;;;4917486;29;20051;-75
2022/07/27 01:53:00;;;;;;;1311.35;983.30;;;12.70;99.90;;;;;;4917558;29;20052;-75
2022/07/27 01:55:25;;;;;;;1343.47;991.15;;;12.60;99.90;;;;;;4901198;29;20052;-93
2022/07/27 01:57:51;;;;;;;1785.28;999.90;;;12.60;1.00;;;;;;4918010;29;20139;-75
2022/07/27 02:00:17;;;;;;;1590.28;999.90;;;12.60;1.00;;;;;;4918050;29;20048;-75
2022/07/27 02:02:42;;;;;;;1554.05;999.90;;;12.60;1.00;;;;;;4916817;29;20060;-79
2022/07/27 02:05:10;;;;;;;1944.20;999.90;;;12.50;1.00;;;;;;4917646;29;20438;-76
2022/07/27 02:07:38;;;;;;;1459.25;999.90;;;12.50;1.00;;;;;;4900860;29;20194;-75
2022/07/27 02:10:04;;;;;;;;;;;12.50;1.00;;;;;;4901337;29;20497;-75
2022/07/27 02:12:36;;;;;;;1696.10;999.90;;;12.50;1.00;;;;;;4917552;29;19927;-75
2022/07/27 02:15:07;;;;;;;1752.13;999.90;;;12.40;1.00;;;;;;4917819;29;20490;-75
2022/07/27 02:17:33;;;;;;;1753.78;999.90;;;12.40;1.00;;;;;;4917409;29;20048;-75
2022/07/27 02:19:59;;;;;;;1614.35;999.90;;;12.40;1.00;;;;;;4901580;29;20135;-77
2022/07/27 02:22:25;;;;;;;1479.75;999.90;;;12.30;1.00;;;;;;4917088;29;20123;-77
2022/07/27 02:24:51;;;;;;;1673.95;999.90;;;12.50;1.00;;;;;;4900565;29;20494;-78
2022/07/27 02:27:16;;;;;;;1625.53;999.90;;;12.30;1.00;;;;;;4917274;29;20112;-78
2022/07/27 02:29:42;;;;;;;1691.95;999.90;;;13.50;1.00;;;;;;4916794;29;20402;-78
2022/07/27 02:32:08;;;;;;;1724.53;999.90;;;12.30;1.00;;;;;;4900679;29;20139;-77
2022/07/27 02:34:34;;;;;;;1576.75;999.90;;;12.20;1.00;;;;;;4917127;29;20481;-77
2022/07/27 02:37:00;;;;;;;1639.93;999.90;;;12.20;1.00;;;;;;4917299;29;20044;-77
2022/07/27 02:39:25;;;;;;;1792.07;999.90;;;12.20;1.00;;;;;;4900636;29;20064;-77
2022/07/27 02:41:51;;;;;;;1823.80;999.90;;;12.10;1.00;;;;;;4917065;29;20397;-77
2022/07/27 02:44:17;;;;;;;1780.13;999.90;;;12.10;1.00;;;;;;4917304;29;20044;-78
2022/07/27 02:46:43;;;;;;;1755.80;999.90;;;12.10;1.00;;;;;;4915746;29;20078;-84
2022/07/27 02:49:09;;;;;;;1823.97;999.90;;;12.00;1.00;;;;;;4900545;29;20048;-78
2022/07/27 02:51:35;;;;;;;1757.90;999.90;;;12.00;1.00;;;;;;4917249;29;20396;-77
2022/07/27 02:54:01;;;;;;;1895.70;999.90;;;12.10;1.00;;;;;;4900161;29;20052;-77
2022/07/27 02:56:27;;;;;;;1937.45;999.90;;;12.00;1.00;;;;;;4917108;29;20091;-77
2022/07/27 02:58:54;;;;;;;1850.50;999.90;;;12.10;1.00;;;;;;4900168;29;20112;-75
2022/07/27 03:01:20;;;;;;;1800.57;999.90;;;12.00;1.00;;;;;;4900807;29;20056;-75
2022/07/27 03:03:46;;;;;;;1783.72;999.90;;;12.00;1.00;;;;;;4900435;29;20044;-76
2022/07/27 03:06:12;;;;;;;1999.90;999.90;;;12.00;1.00;;;;;;4917276;29;20379;-75
2022/07/27 03:08:38;;;;;;;1999.90;999.90;;;11.90;1.00;;;;;;4916715;29;20561;-76
2022/07/27 03:11:04;;;;;;;1999.90;999.90;;;12.00;1.00;;;;;;4917106;29;20086;-75
2022/07/27 03:13:31;;;;;;;1965.40;999.90;;;12.10;1.00;;;;;;4917019;29;20056;-75
2022/07/27 03:15:57;;;;;;;1999.90;999.90;;;12.10;1.00;;;;;;4916840;29;20044;-77
2022/07/27 03:18:23;;;;;;;1999.90;999.90;;;12.20;1.00;;;;;;4916770;29;20417;-75
2022/07/27 03:20:48;;;;;;;1999.90;999.90;;;12.30;1.00;;;;;;4916755;29;20047;-75
2022/07/27 03:23:16;;;;;;;1999.90;999.90;;;12.40;1.00;;;;;;4916298;29;20047;-77
2022/07/27 03:25:42;;;;;;;1999.90;999.90;;;12.40;1.00;;;;;;4916496;29;20123;-76
2022/07/27 03:28:08;;;;;;;1999.90;999.90;;;12.60;1.00;;;;;;4916752;29;20052;-76
2022/07/27 03:30:33;;;;;;;1800.65;999.90;;;12.60;1.00;;;;;;4916891;29;20044;-76
2022/07/27 03:32:59;;;;;;;1999.90;999.90;;;12.70;1.00;;;;;;4916158;29;20059;-75
2022/07/27 03:35:25;;;;;;;1721.25;999.90;;;12.80;1.00;;;;;;4916631;29;20092;-76
2022/07/27 03:37:51;;;;;;;1905.82;999.90;;;12.80;1.00;;;;;;4899286;29;20055;-76
2022/07/27 03:40:17;;;;;;;1982.78;999.90;;;12.90;1.00;;;;;;4916571;29;20073;-78
2022/07/27 03:42:44;;;;;;;1999.90;999.90;;;13.90;1.00;;;;;;4918655;29;20055;-76
2022/07/27 03:45:10;;;;;;;1999.90;999.90;;;13.00;1.00;;;;;;4920500;29;20070;-76
2022/07/27 03:47:35;;;;;;;1883.90;999.90;;;13.10;1.00;;;;;;4920350;29;20048;-76
2022/07/27 03:50:01;;;;;;;1999.90;999.90;;;13.10;1.00;;;;;;4903073;29;20067;-75
2022/07/27 03:52:27;;;;;;;1960.32;999.90;;;13.00;1.00;;;;;;4887447;29;20044;-75
2022/07/27 03:54:52;;;;;;;1987.85;999.90;;;13.00;1.00;;;;;;4920017;29;20048;-76
2022/07/27 03:57:18;;;;;;;1863.60;999.90;;;13.00;1.00;;;;;;4920066;29;20048;-76
2022/07/27 03:59:44;;;;;;;1803.40;999.90;;;13.10;1.00;;;;;;4920204;29;20052;-76
2022/07/27 04:02:09;;;;;;;1758.95;999.90;;;13.10;1.00;;;;;;4919991;29;20048;-76
2022/07/27 04:04:35;;;;;;;1819.90;999.90;;;13.10;1.00;;;;;;4920097;29;20454;-76
2022/07/27 04:07:01;;;;;;;1736.60;999.90;;;13.10;1.00;;;;;;4919525;29;20248;-75
2022/07/27 04:09:27;;;;;;;1701.72;999.90;;;13.20;1.00;;;;;;4920023;29;20048;-76
2022/07/27 04:11:53;;;;;;;1992.85;999.90;;;13.20;1.00;;;;;;4919528;29;20104;-76
2022/07/27 04:14:19;;;;;;;1786.85;999.90;;;13.30;1.00;;;;;;4918780;29;20063;-76
2022/07/27 04:16:45;;;;;;;1852.95;999.90;;;13.30;1.00;;;;;;4919736;29;20044;-76
2022/07/27 04:19:11;;;;;;;1700.75;999.90;;;13.30;1.00;;;;;;4919838;29;20052;-76
2022/07/27 04:21:37;;;;;;;1960.13;999.90;;;13.40;1.00;;;;;;4918677;29;20071;-76
2022/07/27 04:24:03;;;;;;;1624.40;999.90;;;13.40;1.00;;;;;;4919146;29;20056;-76
2022/07/27 04:26:29;;;;;;;1681.20;999.90;;;13.40;1.00;;;;;;4919689;29;20126;-76
2022/07/27 04:28:55;;;;;;;1753.30;999.90;;;13.50;1.00;;;;;;4919365;29;20176;-76
2022/07/27 04:31:22;;;;;;;1735.95;999.90;;;13.50;1.00;;;;;;4919516;29;20048;-76
2022/07/27 04:33:47;;;;;;;1790.97;999.90;;;13.60;1.00;;;;;;4919310;29;20067;-76
2022/07/27 04:36:13;;;;;;;1623.80;999.90;;;13.60;1.00;;;;;;4919665;29;20048;-76
2022/07/27 04:38:39;;;;;;;1723.35;999.90;;;13.70;1.00;;;;;;4919178;29;20131;-76
2022/07/27 04:41:05;;;;;;;1778.53;999.90;;;13.70;1.00;;;;;;4919286;29;20048;-76
2022/07/27 04:43:31;;;;;;;1621.25;999.90;;;13.80;1.00;;;;;;4919333;29;20062;-76
2022/07/27 04:45:56;;;;;;;1807.75;999.90;;;13.80;1.00;;;;;;4902377;29;20139;-75
2022/07/27 04:48:22;;;;;;;1681.13;999.90;;;13.90;1.00;;;;;;4919175;29;20055;-75
2022/07/27 04:50:48;;;;;;;1769.30;999.90;;;14.00;1.00;;;;;;4918890;29;20052;-76
2022/07/27 04:53:15;;;;;;;1575.82;999.90;;;14.00;1.00;;;;;;4917538;29;20565;-79
2022/07/27 04:55:42;;;;;;;1746.30;999.90;;;14.10;1.00;;;;;;4918253;29;20056;-76
2022/07/27 04:58:08;;;;;;;1877.78;999.90;;;14.10;1.00;;;;;;4917684;29;20056;-76
2022/07/27 05:00:33;;;;;;;1870.30;999.90;;;14.20;1.00;;;;;;4919072;29;20063;-76
2022/07/27 05:02:59;;;;;;;1827.03;999.90;;;14.20;1.00;;;;;;4918669;29;20494;-76
2022/07/27 05:05:25;;;;;;;1815.72;999.90;;;14.90;1.00;;;;;;4918967;29;20426;-75
2022/07/27 05:07:50;;;;;;;1710.47;999.90;;;14.30;1.00;;;;;;4918091;29;20055;-77
2022/07/27 05:10:17;;;;;;;1722.10;999.90;;;14.40;1.00;;;;;;4918802;29;20044;-76
2022/07/27 05:12:43;;;;;;;1627.10;999.90;;;14.50;99.90;;;;;;4918717;29;20067;-76
2022/07/27 05:15:09;;;;;;;1999.90;999.90;;;14.60;99.90;;;;;;4918582;29;20040;-76
2022/07/27 05:17:35;;;;;;;1769.43;999.90;;;14.60;99.90;;;;;;4918330;29;20056;-77
2022/07/27 05:20:02;;;;;;;1744.07;999.90;;;14.60;99.90;;;;;;4918482;29;20046;-75
2022/07/27 05:22:27;;;;;;;1738.00;999.90;;;13.50;99.90;;;;;;4901484;29;20052;-76
2022/07/27 05:24:53;;;;;;;1512.88;999.90;;;14.60;99.90;;;;;;4901767;29;20055;-76
2022/07/27 05:27:18;;;;;;;1980.18;999.90;;;14.60;99.90;;;;;;4918857;29;20108;-75
2022/07/27 05:29:44;;;;;;;1701.15;999.90;;;14.70;99.90;;;;;;4901689;29;20073;-76
2022/07/27 05:32:10;;;;;;;1804.82;999.90;;;14.80;99.90;;;;;;4917939;29;20447;-74
2022/07/27 05:34:36;;;;;;;1685.63;999.90;;;14.90;99.90;;;;;;4901879;29;20056;-74
2022/07/27 05:37:02;;;;;;;1713.88;999.90;;;15.00;99.90;;;;;;4917915;29;20099;-75
2022/07/27 05:39:28;;;;;;;1865.30;999.90;;;15.00;99.90;;;;;;4886231;29;20135;-74
2022/07/27 05:41:54;;;;;;;1992.13;999.90;;;15.10;99.90;;;;;;4918080;29;20052;-77
2022/07/27 05:44:19;;;;;;;1990.82;999.90;;;15.10;99.90;;;;;;4918363;29;20056;-75
2022/07/27 05:46:45;;;;;;;1895.95;999.90;;;15.10;99.90;;;;;;4918185;29;20081;-75
2022/07/27 05:49:11;;;;;;;1999.90;999.90;;;15.10;99.90;;;;;;4918141;29;20087;-75
2022/07/27 05:51:37;;;;;;;1999.90;999.90;;;15.20;99.90;;;;;;4901467;29;20052;-75
2022/07/27 05:54:03;;;;;;;1926.75;999.90;;;15.20;99.90;;;;;;4900862;29;20048;-74
2022/07/27 05:56:29;;;;;;;1857.03;999.90;;;15.20;99.90;;;;;;4916982;29;20107;-75
2022/07/27 05:58:55;;;;;;;1999.90;999.90;;;15.20;99.90;;;;;;4900966;29;20048;-74
2022/07/27 06:01:21;;;;;;;1975.35;999.90;;;15.30;99.90;;;;;;4917988;29;20110;-78
2022/07/27 06:03:48;;;;;;;1707.38;999.90;;;15.30;99.90;;;;;;4900728;29;20044;-75
2022/07/27 06:08:58;;;;;;;1708.38;999.90;;;15.40;99.90;;;;;;4917283;29;20059;-75
2022/07/27 06:11:23;;;;;;;1760.28;999.90;;;15.40;99.90;;;;;;4917971;29;20131;-77
2022/07/27 06:13:49;;;;;;;1428.60;999.90;;;15.40;99.90;;;;;;4900826;29;20052;-75
2022/07/27 06:16:15;;;;;;;1675.63;999.90;;;15.30;99.90;;;;;;4917584;29;20059;-75
2022/07/27 06:18:41;;;;;;;1661.32;999.90;;;15.30;99.90;;;;;;4916174;29;20580;-75
2022/07/27 06:21:07;;;;;;;1677.65;999.90;;;15.20;99.90;;;;;;4900744;29;20139;-75
2022/07/27 06:23:33;;;;;;;1792.40;999.90;;;15.30;99.90;;;;;;4900262;29;20143;-76
2022/07/27 06:25:59;;;;;;;1897.10;999.90;;;15.30;99.90;;;;;;4917388;29;20397;-75
2022/07/27 06:28:24;;;;;;;1581.25;999.90;;;15.20;99.90;;;;;;4917456;29;20055;-75
2022/07/27 06:30:52;;;;;;;1711.80;999.90;;;15.20;99.90;;;;;;4917407;29;20108;-75
2022/07/27 06:33:26;;;;;;;1591.68;999.90;;;15.20;99.90;;;;;;4916045;29;20056;-75
2022/07/27 06:35:58;;;;;;;1690.65;999.90;;;15.20;99.90;;;;;;4917485;29;20055;-74
2022/07/27 06:38:25;;;;;;;1664.55;999.90;;;15.30;99.90;;;;;;4915881;29;20438;-77
2022/07/27 06:40:53;;;;;;;1999.90;999.90;;;15.40;99.90;;;;;;4917023;29;20486;-75
2022/07/27 06:43:24;;;;;;;1936.15;999.90;;;15.60;99.90;;;;;;4900506;29;20051;-75
2022/07/27 06:45:52;;;;;;;1443.05;999.90;;;15.70;99.90;;;;;;4917214;29;20055;-75
2022/07/27 06:48:20;;;;;;;1770.32;999.90;;;15.80;99.90;;;;;;4899880;29;20052;-75
2022/07/27 06:50:46;;;;;;;1999.90;999.90;;;16.00;99.90;;;;;;4900265;29;20545;-76
2022/07/27 06:53:12;;;;;;;1999.90;999.90;;;16.10;99.90;;;;;;4899910;29;20471;-76
2022/07/27 06:55:38;;;;;;;1432.43;982.67;;;16.30;99.90;;;;;;4917213;29;20127;-76
2022/07/27 06:58:04;;;;;;;1999.90;999.90;;;16.40;99.90;;;;;;4915482;29;20056;-75
2022/07/27 07:00:30;;;;;;;1890.68;970.97;;;16.60;99.90;;;;;;4916980;29;20059;-76
2022/07/27 07:02:58;;;;;;;1787.57;999.90;;;16.80;99.90;;;;;;4916817;29;20458;-76
2022/07/27 07:05:24;;;;;;;1078.90;971.00;;;17.00;99.90;;;;;;4916848;29;20127;-76
2022/07/27 07:07:51;;;;;;;1999.90;999.90;;;17.20;99.90;;;;;;4916562;29;20044;-75
2022/07/27 07:10:17;;;;;;;1633.43;999.90;;;17.40;99.90;;;;;;4916599;29;20131;-76
2022/07/27 07:12:43;;;;;;;1523.38;997.80;;;17.50;99.90;;;;;;4916684;29;20292;-76
2022/07/27 07:15:09;;;;;;;1207.30;889.92;;;17.70;99.90;;;;;;4899863;29;20048;-75
2022/07/27 07:17:35;;;;;;;1537.13;999.90;;;18.00;99.90;;;;;;4915933;29;20091;-76
2022/07/27 07:20:03;;;;;;;767.80;702.50;;;18.40;99.90;;;;;;4916542;29;20044;-76
2022/07/27 07:22:29;;;;;;;930.72;856.58;;;18.80;99.90;;;;;;4899877;29;20044;-77
2022/07/27 07:24:55;;;;;;;828.95;763.55;;;19.70;99.90;;;;;;4900142;29;20119;-76
2022/07/27 07:27:22;;;;;;;931.80;857.08;;;20.40;99.90;;;;;;4899731;29;20040;-77
2022/07/27 07:29:49;;;;;;;916.72;844.55;;;20.80;99.90;;;;;;4916915;29;20052;-76
2022/07/27 07:32:15;;;;;;;972.05;895.53;;;21.60;99.90;;;;;;4916227;29;20071;-77
2022/07/27 07:34:41;;;;;;;987.53;903.78;;;22.80;99.90;;;;;;4916876;29;20056;-76
2022/07/27 07:37:07;;;;;;;963.42;883.08;;;24.10;99.90;;;;;;4916110;29;20107;-76
2022/07/27 07:39:33;;;;;;;802.88;744.03;;;25.30;94.90;;;;;;4885040;29;20048;-75
2022/07/27 07:41:58;;;;;;;449.00;418.67;;;26.50;86.20;;;;;;4900124;29;20553;-76
2022/07/27 07:44:25;;;;;;;287.13;270.63;;;27.50;55.70;;;;;;4916595;29;20048;-76
2022/07/27 07:46:50;;;;;;;283.33;267.23;;;28.20;31.10;;;;;;4899922;29;20074;-81
2022/07/27 07:49:16;;;;;;;293.23;275.85;;;29.00;19.80;;;;;;4899555;29;20481;-81
2022/07/27 07:51:42;;;;;;;420.80;393.30;;;29.70;13.10;;;;;;4899947;29;20063;-82
2022/07/27 07:54:08;;;;;;;391.42;360.02;;;30.10;1.00;;;;;;4899097;29;20052;-77
2022/07/27 07:56:34;;;;;;;354.38;330.00;;;29.70;1.00;;;;;;4899796;29;20108;-76
2022/07/27 07:59:03;;;;;;;529.65;492.48;;;30.40;1.00;;;;;;4916069;29;20044;-77
2022/07/27 08:01:29;;;;;;;620.72;578.88;;;30.50;1.00;;;;;;4916390;29;20115;-77
2022/07/27 08:03:55;;;;;;;765.38;712.47;;;30.40;1.00;;;;;;4899599;29;20131;-76
2022/07/27 08:06:20;;;;;;;633.35;590.38;;;29.70;1.00;;;;;;4916117;29;20056;-77
2022/07/27 08:08:46;;;;;;;544.53;507.38;;;29.70;1.00;;;;;;4914938;29;20060;-77
2022/07/27 08:11:12;;;;;;;637.75;591.50;;;29.30;1.00;;;;;;4899151;29;20059;-76
2022/07/27 08:13:38;;;;;;;699.97;651.25;;;29.30;1.00;;;;;;4899438;29;20052;-77
2022/07/27 08:16:04;;;;;;;845.75;783.90;;;28.80;1.00;;;;;;4916318;29;20051;-77
2022/07/27 08:18:30;;;;;;;629.92;583.55;;;27.90;1.00;;;;;;4899204;29;20397;-77
2022/07/27 08:20:55;;;;;;;538.88;499.58;;;27.20;1.00;;;;;;4916223;29;20127;-77
2022/07/27 08:23:21;;;;;;;512.17;474.10;;;26.10;1.00;;;;;;4915609;29;20048;-77
2022/07/27 08:25:47;;;;;;;744.25;683.47;;;24.70;1.00;;;;;;4916028;29;20052;-77
2022/07/27 08:28:13;;;;;;;551.70;510.52;;;23.50;1.00;;;;;;4900623;29;20055;-77
2022/07/27 08:30:38;;;;;;;666.20;613.05;;;22.50;1.00;;;;;;4919600;29;20071;-77
2022/07/27 08:33:04;;;;;;;692.92;636.55;;;21.80;1.00;;;;;;4919482;29;20056;-77
2022/07/27 08:35:31;;;;;;;557.65;516.08;;;21.20;7.10;;;;;;4919456;29;20052;-77
2022/07/27 08:37:58;;;;;;;861.63;790.72;;;20.80;15.10;;;;;;4919310;29;20048;-77
2022/07/27 08:40:24;;;;;;;609.77;562.67;;;20.60;25.70;;;;;;4919303;29;20056;-77
2022/07/27 08:42:50;;;;;;;516.70;479.05;;;20.40;22.00;;;;;;4902668;29;20048;-77
2022/07/27 08:45:18;;;;;;;416.20;387.85;;;20.20;26.80;;;;;;4918254;29;20052;-81
2022/07/27 08:47:47;;;;;;;468.63;435.70;;;20.30;29.90;;;;;;4919338;29;20056;-77
2022/07/27 08:50:27;;;;;;;518.75;481.77;;;20.30;28.70;;;;;;4919002;29;20055;-77
2022/07/27 08:53:07;;;;;;;525.58;487.73;;;20.30;30.60;;;;;;4918945;29;20127;-77
2022/07/27 08:55:38;;;;;;;842.58;777.25;;;20.30;26.40;;;;;;4919135;29;20083;-78
2022/07/27 08:58:05;;;;;;;705.38;651.47;;;20.40;27.60;;;;;;4919118;29;20044;-77
2022/07/27 09:00:33;;;;;;;435.05;405.00;;;20.40;22.00;;;;;;4918691;29;20387;-77
2022/07/27 09:02:59;;;;;;;935.60;857.72;;;20.50;24.80;;;;;;4902157;29;20060;-77
2022/07/27 09:05:25;;;;;;;898.70;824.42;;;20.60;29.60;;;;;;4918480;29;20052;-77
2022/07/27 09:07:51;;;;;;;564.65;522.20;;;20.80;28.40;;;;;;4917773;29;20055;-78
2022/07/27 09:10:37;;;;;;;653.35;600.80;;;21.00;24.70;;;;;;4918728;29;20397;-77
2022/07/27 09:13:26;;;;;;;826.28;760.88;;;21.30;20.10;;;;;;4918650;29;20052;-79
2022/07/27 09:16:07;;;;;;;625.05;576.22;;;21.60;20.20;;;;;;4917653;29;20060;-77
2022/07/27 09:18:36;;;;;;;650.90;598.70;;;22.00;1.00;;;;;;4918406;29;20052;-77
2022/07/27 09:21:17;;;;;;;636.55;584.58;;;22.20;1.00;;;;;;4918434;29;20508;-77
2022/07/27 09:23:55;;;;;;;876.08;802.00;;;22.30;1.00;;;;;;4901155;29;20553;-78
2022/07/27 09:26:22;;;;;;;665.38;612.55;;;22.40;7.60;;;;;;4918365;29;20105;-77
2022/07/27 09:28:53;;;;;;;491.38;453.52;;;22.60;1.90;;;;;;4918181;29;20528;-77
2022/07/27 09:31:18;;;;;;;343.55;321.42;;;22.60;1.30;;;;;;4918192;29;20048;-77
2022/07/27 09:33:53;;;;;;;701.28;646.90;;;22.80;1.00;;;;;;4918390;29;20067;-77
2022/07/27 09:36:21;;;;;;;714.38;656.05;;;23.00;1.00;;;;;;4918201;29;20048;-77
2022/07/27 09:38:54;;;;;;;;;;;23.20;1.00;;;;;;4901319;29;20052;-78
2022/07/27 09:41:21;;;;;;;452.02;423.15;;;23.30;1.00;;;;;;4900846;29;20401;-77
2022/07/27 09:43:49;;;;;;;422.67;395.70;;;23.60;1.00;;;;;;4901281;29;20292;-77
2022/07/27 09:46:15;;;;;;;478.58;447.83;;;23.90;1.00;;;;;;4918321;29;20059;-77
2022/07/27 09:48:41;;;;;;;448.10;417.75;;;24.30;1.00;;;;;;4918230;29;20057;-77
2022/07/27 09:51:10;;;;;;;855.08;788.90;;;25.10;1.00;;;;;;4901345;29;20201;-77
2022/07/27 09:53:36;;;;;;;815.75;752.22;;;26.30;1.00;;;;;;4916587;29;20055;-78
2022/07/27 09:56:12;;;;;;;684.97;634.13;;;27.10;1.00;;;;;;4901330;29;20052;-77
2022/07/27 09:58:42;;;;;;;583.85;538.67;;;27.40;1.00;;;;;;4901505;29;20499;-77
2022/07/27 10:01:13;;;;;;;263.23;245.05;;;27.30;1.00;;;;;;4918105;29;20051;-75
2022/07/27 10:03:40;;;;;;;780.25;721.65;;;27.60;1.00;;;;;;4917764;29;20040;-76
2022/07/27 10:06:08;;;;;;;858.75;792.03;;;27.60;1.00;;;;;;4901033;29;20048;-75
2022/07/27 10:08:36;;;;;;;689.13;638.35;;;27.50;1.00;;;;;;4917467;29;20498;-76
2022/07/27 10:11:01;;;;;;;871.08;799.75;;;27.20;1.00;;;;;;4917726;29;20493;-76
2022/07/27 10:13:27;;;;;;;734.13;674.80;;;26.50;1.00;;;;;;4900761;29;20099;-76
2022/07/27 10:15:53;;;;;;;592.80;547.80;;;25.60;1.00;;;;;;4917840;29;20044;-76
2022/07/27 10:18:37;;;;;;;695.00;641.20;;;24.80;1.00;;;;;;4917076;29;20058;-76
2022/07/27 10:21:09;;;;;;;724.50;667.42;;;24.00;1.00;;;;;;4917658;29;20100;-76
2022/07/27 10:23:37;;;;;;;714.63;659.90;;;23.40;1.00;;;;;;4917229;29;20048;-76
2022/07/27 10:26:17;;;;;;;631.80;584.03;;;23.10;1.00;;;;;;4917701;29;20104;-76
2022/07/27 10:28:54;;;;;;;603.13;558.83;;;22.80;1.00;;;;;;4917246;29;20058;-76
2022/07/27 10:31:38;;;;;;;689.10;636.35;;;22.70;1.00;;;;;;4917597;29;20510;-76
2022/07/27 10:34:06;;;;;;;394.25;365.42;;;22.80;1.00;;;;;;4917574;29;20116;-76
2022/07/27 10:36:32;;;;;;;576.40;531.83;;;22.90;1.00;;;;;;4917268;29;20405;-76
2022/07/27 10:38:59;;;;;;;565.67;523.75;;;23.10;1.00;;;;;;4917250;29;20051;-77
2022/07/27 10:41:27;;;;;;;512.95;474.55;;;23.50;1.00;;;;;;4917254;29;20374;-76
2022/07/27 10:44:21;;;;;;;490.23;457.13;;;24.00;1.00;;;;;;4917311;29;20044;-76
2022/07/27 10:46:59;;;;;;;641.08;592.92;;;24.50;1.00;;;;;;4917001;29;20055;-76
2022/07/27 10:49:30;;;;;;;606.42;561.72;;;25.10;1.00;;;;;;4900607;29;20044;-87
2022/07/27 10:51:58;;;;;;;263.67;245.98;;;25.70;1.00;;;;;;4916814;29;20087;-76
2022/07/27 10:54:29;;;;;;;567.60;526.10;;;26.00;1.00;;;;;;4917217;29;20413;-77
2022/07/27 10:56:57;;;;;;;631.33;585.05;;;26.60;1.00;;;;;;4917067;29;20056;-76
2022/07/27 10:59:42;;;;;;;268.92;252.98;;;28.00;1.00;;;;;;4917065;29;20136;-76
2022/07/27 11:02:10;;;;;;;608.00;564.28;;;29.10;1.00;;;;;;4916835;29;20063;-76
2022/07/27 11:04:50;;;;;;;299.58;280.02;;;28.90;1.00;;;;;;4916659;29;20056;-76
2022/07/27 11:07:21;;;;;;;634.78;588.92;;;28.10;1.00;;;;;;4899817;29;20092;-76
2022/07/27 11:09:49;;;;;;;629.22;584.08;;;27.30;1.00;;;;;;4916479;29;20051;-76
2022/07/27 11:12:16;;;;;;;626.55;583.17;;;26.60;1.00;;;;;;4916787;29;20051;-78
2022/07/27 11:14:52;;;;;;;448.77;416.23;;;25.80;1.00;;;;;;4916635;29;20443;-76
2022/07/27 11:17:24;;;;;;;694.90;642.85;;;25.00;1.00;;;;;;4899934;29;20059;-76
2022/07/27 11:19:54;;;;;;;838.90;776.10;;;24.30;1.00;;;;;;4916672;29;20112;-76
2022/07/27 11:22:40;;;;;;;761.63;707.75;;;23.80;1.00;;;;;;4916408;29;20048;-76
2022/07/27 11:25:07;;;;;;;777.03;718.88;;;23.60;1.00;;;;;;4916819;29;20482;-76
2022/07/27 11:27:45;;;;;;;674.50;623.65;;;23.20;1.00;;;;;;4916530;29;20051;-77
2022/07/27 11:30:26;;;;;;;787.50;729.38;;;23.20;1.00;;;;;;4899858;29;20054;-76
2022/07/27 11:32:52;;;;;;;568.78;526.47;;;23.20;1.00;;;;;;4899404;29;20056;-77
2022/07/27 11:35:18;;;;;;;696.17;647.88;;;23.30;1.00;;;;;;4899707;29;20528;-78
2022/07/27 11:37:57;;;;;;;622.10;574.63;;;23.50;1.00;;;;;;4915913;29;20084;-77
2022/07/27 11:40:22;;;;;;;961.30;881.55;;;23.80;1.00;;;;;;4916580;29;20048;-77
2022/07/27 11:42:49;;;;;;;692.38;639.88;;;24.10;1.00;;;;;;4916548;29;20389;-78
2022/07/27 11:45:31;;;;;;;393.50;366.63;;;24.80;1.00;;;;;;4916470;29;20051;-78
2022/07/27 11:47:57;;;;;;;365.25;340.27;;;25.80;1.00;;;;;;4916371;29;20048;-78
2022/07/27 11:50:23;;;;;;;311.25;290.08;;;26.90;1.00;;;;;;4916024;29;20490;-77
2022/07/27 11:52:56;;;;;;;648.80;599.47;;;28.30;1.00;;;;;;4915708;29;20052;-77
2022/07/27 11:55:23;;;;;;;358.90;337.70;;;29.50;1.00;;;;;;4916349;29;20056;-77
2022/07/27 11:57:49;;;;;;;318.77;300.23;;;30.30;1.00;;;;;;4916062;29;20048;-77
2022/07/27 12:00:14;;;;;;;311.55;293.27;;;30.10;1.00;;;;;;4916583;29;20550;-77
2022/07/27 12:02:50;;;;;;;410.83;382.20;;;29.30;1.00;;;;;;4916740;29;20445;-78
2022/07/27 12:05:16;;;;;;;300.98;282.63;;;28.40;1.00;;;;;;4919997;29;20052;-78
2022/07/27 12:07:43;;;;;;;637.47;589.90;;;27.40;1.00;;;;;;4919708;29;20454;-77
2022/07/27 12:10:10;;;;;;;788.63;726.58;;;26.50;1.00;;;;;;4919917;29;20079;-77
2022/07/27 12:12:36;;;;;;;424.10;392.27;;;25.70;1.00;;;;;;4919864;29;20048;-78